createdAt,value
2019-05-18T00:01:42.569Z,12.60
2019-05-18T00:04:12.788Z,12.50
2019-05-18T00:06:42.956Z,12.40
2019-05-18T00:09:13.121Z,12.40
2019-05-18T00:11:43.164Z,12.40
2019-05-18T00:14:13.479Z,12.30
2019-05-18T00:16:43.708Z,12.30
2019-05-18T00:19:13.885Z,12.20
2019-05-18T00:21:43.988Z,12.20
2019-05-18T00:24:14.095Z,12.10
2019-05-18T00:26:44.293Z,12.10
2019-05-18T00:29:14.394Z,12.00
2019-05-18T00:31:44.617Z,12.00
2019-05-18T00:34:14.814Z,12.00
2019-05-18T00:36:44.925Z,11.90
2019-05-18T00:39:15.039Z,11.90
2019-05-18T00:41:45.630Z,11.80
2019-05-18T00:44:15.910Z,11.80
2019-05-18T00:46:46.160Z,11.80
2019-05-18T00:49:16.360Z,11.70
2019-05-18T00:51:46.514Z,11.70
2019-05-18T00:54:16.758Z,11.70
2019-05-18T00:56:46.778Z,11.60
2019-05-18T00:59:17.047Z,11.60
2019-05-18T01:01:47.048Z,11.60
2019-05-18T01:04:17.181Z,11.60
2019-05-18T01:06:47.254Z,11.50
2019-05-18T01:09:17.376Z,11.50
2019-05-18T01:11:47.565Z,11.40
2019-05-18T01:14:17.844Z,11.40
2019-05-18T01:16:48.876Z,11.40
2019-05-18T01:19:19.036Z,11.30
2019-05-18T01:21:49.106Z,11.30
2019-05-18T01:24:19.220Z,11.30
2019-05-18T01:26:49.478Z,11.30
2019-05-18T01:29:19.642Z,11.30
2019-05-18T01:31:49.787Z,11.20
2019-05-18T01:34:20.052Z,11.20
2019-05-18T01:36:50.156Z,11.10
2019-05-18T01:39:20.245Z,11.10
2019-05-18T01:41:50.472Z,11.10
2019-05-18T01:44:20.566Z,11.10
2019-05-18T01:46:50.654Z,11.00
2019-05-18T01:49:20.773Z,11.00
2019-05-18T01:51:50.834Z,11.00
2019-05-18T01:54:20.767Z,11.00
2019-05-18T01:56:50.827Z,10.90
2019-05-18T01:59:20.989Z,10.90
2019-05-18T02:01:51.035Z,10.80
2019-05-18T02:04:21.211Z,10.80
2019-05-18T02:06:51.297Z,10.80
2019-05-18T02:09:21.440Z,10.70
2019-05-18T02:11:51.644Z,10.70
2019-05-18T02:14:21.704Z,10.70
2019-05-18T02:16:51.850Z,10.70
2019-05-18T02:19:24.762Z,10.70
2019-05-18T02:21:55.745Z,10.70
2019-05-18T02:24:25.758Z,10.70
2019-05-18T02:26:55.940Z,10.60
2019-05-18T02:29:26.107Z,10.60
2019-05-18T02:31:56.276Z,10.60
2019-05-18T02:34:26.413Z,10.50
2019-05-18T02:36:56.477Z,10.50
2019-05-18T02:39:26.842Z,10.40
2019-05-18T02:41:58.047Z,10.40
2019-05-18T02:44:28.141Z,10.40
2019-05-18T02:46:58.246Z,10.30
2019-05-18T02:49:28.361Z,10.30
2019-05-18T02:51:58.631Z,10.30
2019-05-18T02:54:28.629Z,10.30
2019-05-18T02:56:58.916Z,10.30
2019-05-18T02:59:29.014Z,10.20
2019-05-18T03:01:59.177Z,10.20
2019-05-18T03:04:29.319Z,10.20
2019-05-18T03:06:59.614Z,10.20
2019-05-18T03:09:29.873Z,10.10
2019-05-18T03:12:00.221Z,10.10
2019-05-18T03:14:30.444Z,10.10
2019-05-18T03:17:00.661Z,10.00
2019-05-18T03:19:30.830Z,10.00
2019-05-18T03:22:01.294Z,10.00
2019-05-18T03:24:31.316Z,9.90
2019-05-18T03:27:01.428Z,9.90
2019-05-18T03:29:31.501Z,9.90
2019-05-18T03:32:01.632Z,9.90
2019-05-18T03:34:31.759Z,9.90
2019-05-18T03:37:01.763Z,9.90
2019-05-18T03:39:31.967Z,9.80
2019-05-18T03:42:02.017Z,9.80
2019-05-18T03:44:32.221Z,9.80
2019-05-18T03:47:02.544Z,9.80
2019-05-18T03:49:32.629Z,9.80
2019-05-18T03:52:02.772Z,9.70
2019-05-18T03:54:32.841Z,9.70
2019-05-18T03:57:02.983Z,9.70
2019-05-18T03:59:32.941Z,9.70
2019-05-18T04:02:03.097Z,9.60
2019-05-18T04:04:33.240Z,9.60
2019-05-18T04:07:03.619Z,9.60
2019-05-18T04:09:33.710Z,9.60
2019-05-18T04:12:03.979Z,9.60
2019-05-18T04:14:34.061Z,9.60
2019-05-18T04:17:04.339Z,9.50
2019-05-18T04:19:45.824Z,9.50
2019-05-18T04:22:06.449Z,9.50
2019-05-18T04:24:36.603Z,9.50
2019-05-18T04:27:06.760Z,9.50
2019-05-18T04:29:36.722Z,9.50
2019-05-18T04:32:06.982Z,9.50
2019-05-18T04:34:37.181Z,9.50
2019-05-18T04:37:07.334Z,9.50
2019-05-18T04:39:37.465Z,9.50
2019-05-18T04:42:07.498Z,9.60
2019-05-18T04:44:37.527Z,9.60
2019-05-18T04:47:07.650Z,9.60
2019-05-18T04:49:37.674Z,9.70
2019-05-18T04:52:07.920Z,9.70
2019-05-18T04:54:37.946Z,9.70
2019-05-18T04:57:08.166Z,9.70
2019-05-18T04:59:38.401Z,9.80
2019-05-18T05:02:08.684Z,9.90
2019-05-18T05:04:38.790Z,9.90
2019-05-18T05:07:08.974Z,9.90
2019-05-18T05:09:39.069Z,10.00
2019-05-18T05:12:09.140Z,10.00
2019-05-18T05:14:39.305Z,10.10
2019-05-18T05:17:09.470Z,10.10
2019-05-18T05:19:39.402Z,10.10
2019-05-18T05:22:09.658Z,10.20
2019-05-18T05:24:39.924Z,10.30
2019-05-18T05:27:09.956Z,10.30
2019-05-18T05:29:39.913Z,10.40
2019-05-18T05:32:09.966Z,10.40
2019-05-18T05:34:40.012Z,10.50
2019-05-18T05:37:10.100Z,10.60
2019-05-18T05:39:40.229Z,10.70
2019-05-18T05:42:10.374Z,10.70
2019-05-18T05:44:40.587Z,10.90
2019-05-18T05:47:10.765Z,11.00
2019-05-18T05:49:40.898Z,11.10
2019-05-18T05:52:11.007Z,11.20
2019-05-18T05:54:41.142Z,11.40
2019-05-18T05:57:11.255Z,11.60
2019-05-18T05:59:41.308Z,11.70
2019-05-18T06:02:12.493Z,11.90
2019-05-18T06:04:42.591Z,12.00
2019-05-18T06:07:12.790Z,12.20
2019-05-18T06:09:42.910Z,12.30
2019-05-18T06:12:13.017Z,12.50
2019-05-18T06:14:43.144Z,12.70
2019-05-18T06:17:13.206Z,12.80
2019-05-18T06:19:43.367Z,12.90
2019-05-18T06:22:13.458Z,13.10
2019-05-18T06:24:43.618Z,13.20
2019-05-18T06:27:13.744Z,13.30
2019-05-18T06:29:43.897Z,13.50
2019-05-18T06:32:14.106Z,13.60
2019-05-18T06:34:44.242Z,13.80
2019-05-18T06:37:14.339Z,14.00
2019-05-18T06:39:44.518Z,14.10
2019-05-18T06:42:15.693Z,14.30
2019-05-18T06:44:45.743Z,14.40
2019-05-18T06:47:16.087Z,14.60
2019-05-18T06:49:46.369Z,14.70
2019-05-18T06:52:16.548Z,14.90
2019-05-18T06:54:46.719Z,15.10
2019-05-18T06:57:17.861Z,15.20
2019-05-18T06:59:48.200Z,15.40
2019-05-18T07:02:18.351Z,15.60
2019-05-18T07:04:48.456Z,15.80
2019-05-18T07:07:18.680Z,16.00
2019-05-18T07:09:48.880Z,16.20
2019-05-18T07:12:19.144Z,16.30
2019-05-18T07:14:49.236Z,16.50
2019-05-18T07:17:19.306Z,16.60
2019-05-18T07:19:49.448Z,16.80
2019-05-18T07:22:19.710Z,17.00
2019-05-18T07:24:49.743Z,17.10
2019-05-18T07:27:19.775Z,17.30
2019-05-18T07:29:49.803Z,17.50
2019-05-18T07:32:20.078Z,17.60
2019-05-18T07:34:50.079Z,17.80
2019-05-18T07:37:20.193Z,17.90
2019-05-18T07:39:50.298Z,18.00
2019-05-18T07:42:20.480Z,18.10
2019-05-18T07:44:50.735Z,18.30
2019-05-18T07:47:20.899Z,18.40
2019-05-18T07:49:51.005Z,18.50
2019-05-18T07:52:21.167Z,18.70
2019-05-18T07:54:51.332Z,18.80
2019-05-18T07:57:21.400Z,18.90
2019-05-18T07:59:51.501Z,19.00
2019-05-18T08:02:21.691Z,19.00
2019-05-18T08:04:51.711Z,19.10
2019-05-18T08:07:21.961Z,19.10
2019-05-18T08:09:52.088Z,19.20
2019-05-18T08:12:22.187Z,19.20
2019-05-18T08:14:52.303Z,19.20
2019-05-18T08:17:22.529Z,19.20
2019-05-18T08:19:52.576Z,19.20
2019-05-18T08:22:22.603Z,19.30
2019-05-18T08:24:52.662Z,19.30
2019-05-18T08:27:22.884Z,19.40
2019-05-18T08:29:52.922Z,19.50
2019-05-18T08:32:23.113Z,19.50
2019-05-18T08:34:53.212Z,19.60
2019-05-18T08:37:23.422Z,19.70
2019-05-18T08:39:53.640Z,19.80
2019-05-18T08:42:23.761Z,19.90
2019-05-18T08:44:53.802Z,20.00
2019-05-18T08:47:23.895Z,20.10
2019-05-18T08:49:54.130Z,20.10
2019-05-18T08:52:24.313Z,20.20
2019-05-18T08:54:54.341Z,20.30
2019-05-18T08:57:24.424Z,20.40
2019-05-18T08:59:54.638Z,20.50
2019-05-18T09:02:24.784Z,20.60
2019-05-18T09:04:54.896Z,20.70
2019-05-18T09:07:25.090Z,20.90
2019-05-18T09:09:55.144Z,20.90
2019-05-18T09:12:25.306Z,21.10
2019-05-18T09:14:55.379Z,21.20
2019-05-18T09:17:25.453Z,21.30
2019-05-18T09:19:55.584Z,21.40
2019-05-18T09:22:25.748Z,21.40
2019-05-18T09:24:55.955Z,21.50
2019-05-18T09:27:26.181Z,21.60
2019-05-18T09:29:56.242Z,21.70
2019-05-18T09:32:26.238Z,21.80
2019-05-18T09:34:56.263Z,21.90
2019-05-18T09:37:26.365Z,22.00
2019-05-18T09:39:56.638Z,22.10
2019-05-18T09:42:26.887Z,22.10
2019-05-18T09:44:57.093Z,22.20
2019-05-18T09:47:27.214Z,22.20
2019-05-18T09:49:57.380Z,22.30
2019-05-18T09:52:44.198Z,22.30
2019-05-18T09:54:59.432Z,22.20
2019-05-18T09:57:29.581Z,22.20
2019-05-18T09:59:59.755Z,22.20
2019-05-18T10:02:29.879Z,22.20
2019-05-18T10:04:59.886Z,22.30
2019-05-18T10:07:30.035Z,22.30
2019-05-18T10:10:00.168Z,22.40
2019-05-18T10:12:30.354Z,22.40
2019-05-18T10:15:02.053Z,22.50
2019-05-18T10:17:32.381Z,22.50
2019-05-18T10:20:02.557Z,22.50
2019-05-18T10:22:32.572Z,22.50
2019-05-18T10:25:02.695Z,22.60
2019-05-18T10:27:32.691Z,22.60
2019-05-18T10:30:02.766Z,22.60
2019-05-18T10:32:33.047Z,22.50
2019-05-18T10:35:03.159Z,22.60
2019-05-18T10:37:33.246Z,22.60
2019-05-18T10:40:03.461Z,22.60
2019-05-18T10:42:33.479Z,22.60
2019-05-18T10:45:03.613Z,22.70
2019-05-18T10:47:33.813Z,22.70
2019-05-18T10:50:04.119Z,22.80
2019-05-18T10:52:34.307Z,22.80
2019-05-18T10:55:04.664Z,22.80
2019-05-18T10:57:34.898Z,22.80
2019-05-18T11:00:06.335Z,22.80
2019-05-18T11:02:36.488Z,22.80
2019-05-18T11:05:07.039Z,22.90
2019-05-18T11:07:37.156Z,23.10
2019-05-18T11:10:08.245Z,23.20
2019-05-18T11:12:38.342Z,23.20
2019-05-18T11:15:09.165Z,23.30
2019-05-18T11:17:39.404Z,23.40
2019-05-18T11:20:10.778Z,23.50
2019-05-18T11:22:40.958Z,23.60
2019-05-18T11:25:11.516Z,23.70
2019-05-18T11:27:41.790Z,23.80
2019-05-18T11:30:12.946Z,23.90
2019-05-18T11:32:43.012Z,24.00
2019-05-18T11:35:13.841Z,24.10
2019-05-18T11:37:44.021Z,24.20
2019-05-18T11:40:16.109Z,24.30
2019-05-18T11:42:58.300Z,24.40
2019-05-18T11:45:23.140Z,24.40
2019-05-18T11:47:53.335Z,24.40
2019-05-18T11:50:23.665Z,24.50
2019-05-18T11:52:53.934Z,24.60
2019-05-18T11:55:24.263Z,24.70
2019-05-18T11:57:54.500Z,24.80
2019-05-18T12:00:26.752Z,25.00
2019-05-18T12:02:56.964Z,25.10
2019-05-18T12:05:27.178Z,25.20
2019-05-18T12:07:57.812Z,25.20
2019-05-18T12:10:27.997Z,25.10
2019-05-18T12:12:58.302Z,25.10
2019-05-18T12:15:29.611Z,25.20
2019-05-18T12:17:59.756Z,25.30
2019-05-18T12:20:29.811Z,25.40
2019-05-18T12:22:59.942Z,25.60
2019-05-18T12:25:29.918Z,25.60
2019-05-18T12:28:00.097Z,25.70
2019-05-18T12:30:30.239Z,25.80
2019-05-18T12:33:00.296Z,25.90
2019-05-18T12:35:30.517Z,25.90
2019-05-18T12:38:00.777Z,25.90
2019-05-18T12:40:30.943Z,25.80
2019-05-18T12:43:01.198Z,25.80
2019-05-18T12:45:31.429Z,25.80
2019-05-18T12:48:01.459Z,25.80
2019-05-18T12:50:31.732Z,25.70
2019-05-18T12:53:02.428Z,25.70
2019-05-18T12:55:33.952Z,25.70
2019-05-18T12:58:05.468Z,25.70
2019-05-18T13:00:36.980Z,25.70
2019-05-18T13:03:09.377Z,25.70
2019-05-18T13:05:39.778Z,25.80
2019-05-18T13:08:12.202Z,25.80
2019-05-18T13:10:49.391Z,25.90
2019-05-18T13:13:21.286Z,26.00
2019-05-18T13:15:51.619Z,26.00
2019-05-18T13:18:22.090Z,26.00
2019-05-18T13:20:52.511Z,26.00
2019-05-18T13:23:22.916Z,26.00
2019-05-18T13:25:53.214Z,26.10
2019-05-18T13:28:23.438Z,26.10
2019-05-18T13:30:53.848Z,26.10
2019-05-18T13:33:24.241Z,26.10
2019-05-18T13:35:54.716Z,26.20
2019-05-18T13:38:26.013Z,26.20
2019-05-18T13:40:56.411Z,26.20
2019-05-18T13:43:26.758Z,26.20
2019-05-18T13:45:57.218Z,26.20
2019-05-18T13:48:27.496Z,26.20
2019-05-18T13:50:57.855Z,26.20
2019-05-18T13:53:28.147Z,26.20
2019-05-18T13:55:58.715Z,26.20
2019-05-18T13:58:29.062Z,26.20
2019-05-18T14:00:59.392Z,26.20
2019-05-18T14:03:29.667Z,26.20
2019-05-18T14:06:00.188Z,26.20
2019-05-18T14:08:30.570Z,26.20
2019-05-18T14:11:00.714Z,26.20
2019-05-18T14:13:30.910Z,26.30
2019-05-18T14:16:01.116Z,26.30
2019-05-18T14:18:31.358Z,26.30
2019-05-18T14:21:01.679Z,26.40
2019-05-18T14:23:32.077Z,26.40
2019-05-18T14:26:03.537Z,26.40
2019-05-18T14:28:34.910Z,26.40
2019-05-18T14:31:05.153Z,26.40
2019-05-18T14:33:35.455Z,26.40
2019-05-18T14:36:05.795Z,26.40
2019-05-18T14:38:35.898Z,26.40
2019-05-18T14:41:06.121Z,26.40
2019-05-18T14:43:36.262Z,26.40
2019-05-18T14:46:06.591Z,26.40
2019-05-18T14:48:37.006Z,26.40
2019-05-18T14:51:07.235Z,26.40
2019-05-18T14:53:37.543Z,26.30
2019-05-18T14:56:07.872Z,26.30
2019-05-18T14:58:40.236Z,26.30
2019-05-18T15:01:10.432Z,26.30
2019-05-18T15:03:40.662Z,26.30
2019-05-18T15:06:10.821Z,26.30
2019-05-18T15:08:41.080Z,26.30
2019-05-18T15:11:11.095Z,26.20
2019-05-18T15:13:41.451Z,26.20
2019-05-18T15:16:11.576Z,26.20
2019-05-18T15:18:41.798Z,26.20
2019-05-18T15:21:12.047Z,26.20
2019-05-18T15:23:42.432Z,26.20
2019-05-18T15:26:12.751Z,26.20
2019-05-18T15:28:43.117Z,26.10
2019-05-18T15:31:13.481Z,26.20
2019-05-18T15:33:43.823Z,26.20
2019-05-18T15:36:15.285Z,26.20
2019-05-18T15:38:45.620Z,26.30
2019-05-18T15:41:16.125Z,26.30
2019-05-18T15:43:48.480Z,26.30
2019-05-18T15:46:20.869Z,26.40
2019-05-18T15:48:51.218Z,26.40
2019-05-18T15:51:21.679Z,26.40
2019-05-18T15:53:52.118Z,26.30
2019-05-18T15:56:22.593Z,26.30
2019-05-18T15:58:52.938Z,26.30
2019-05-18T16:01:23.433Z,26.40
2019-05-18T16:03:53.864Z,26.40
2019-05-18T16:06:25.197Z,26.40
2019-05-18T16:08:55.547Z,26.30
2019-05-18T16:11:25.952Z,26.30
2019-05-18T16:13:56.554Z,26.20
2019-05-18T16:16:26.947Z,26.00
2019-05-18T16:18:57.371Z,25.80
2019-05-18T16:21:27.900Z,25.70
2019-05-18T16:23:58.521Z,25.50
2019-05-18T16:26:28.957Z,25.30
2019-05-18T16:28:59.331Z,25.10
2019-05-18T16:31:47.754Z,25.00
2019-05-18T16:34:19.157Z,24.80
2019-05-18T16:36:49.459Z,24.70
2019-05-18T16:39:20.878Z,24.60
2019-05-18T16:41:51.456Z,24.50
2019-05-18T16:44:21.715Z,24.40
2019-05-18T16:46:52.184Z,24.30
2019-05-18T16:49:22.941Z,24.20
2019-05-18T16:51:53.696Z,24.10
2019-05-18T16:54:24.907Z,24.00
2019-05-18T16:56:56.027Z,23.90
2019-05-18T16:59:26.374Z,23.80
2019-05-18T17:01:56.918Z,23.80
2019-05-18T17:04:27.223Z,23.70
2019-05-18T17:07:02.681Z,23.60
2019-05-18T17:09:33.031Z,23.60
2019-05-18T17:12:03.424Z,23.50
2019-05-18T17:14:33.746Z,23.50
2019-05-18T17:17:06.178Z,23.40
2019-05-18T17:19:51.031Z,23.30
2019-05-18T17:22:21.171Z,23.30
2019-05-18T17:24:51.466Z,23.20
2019-05-18T17:27:21.871Z,23.20
2019-05-18T17:29:52.283Z,23.10
2019-05-18T17:32:22.716Z,23.10
2019-05-18T17:34:53.753Z,23.00
2019-05-18T17:37:24.091Z,23.00
2019-05-18T17:39:54.435Z,22.90
2019-05-18T17:42:24.637Z,22.90
2019-05-18T17:44:54.858Z,22.90
2019-05-18T17:47:24.921Z,22.90
2019-05-18T17:49:55.293Z,22.80
2019-05-18T17:52:25.510Z,22.70
2019-05-18T17:54:57.430Z,22.70
2019-05-18T17:57:27.551Z,22.60
2019-05-18T17:59:57.779Z,22.50
2019-05-18T18:02:28.039Z,22.40
2019-05-18T18:04:58.216Z,22.30
2019-05-18T18:07:28.466Z,22.20
2019-05-18T18:09:59.079Z,22.10
2019-05-18T18:12:32.146Z,22.00
2019-05-18T18:15:02.548Z,21.90
2019-05-18T18:17:32.716Z,21.80
2019-05-18T18:20:02.938Z,21.70
2019-05-18T18:22:33.056Z,21.60
2019-05-18T18:25:03.323Z,21.50
2019-05-18T18:27:33.528Z,21.40
2019-05-18T18:30:03.834Z,21.30
2019-05-18T18:32:34.028Z,21.20
2019-05-18T18:35:04.170Z,21.20
2019-05-18T18:37:34.199Z,21.10
2019-05-18T18:40:04.660Z,21.00
2019-05-18T18:42:34.886Z,20.90
2019-05-18T18:45:05.329Z,20.80
2019-05-18T18:47:35.509Z,20.80
2019-05-18T18:50:05.824Z,20.70
2019-05-18T18:52:36.173Z,20.60
2019-05-18T18:55:06.546Z,20.50
2019-05-18T18:57:41.162Z,20.50
2019-05-18T19:00:09.638Z,20.40
2019-05-18T19:02:39.840Z,20.40
2019-05-18T19:05:11.482Z,20.30
2019-05-18T19:07:41.697Z,20.30
2019-05-18T19:10:12.287Z,20.20
2019-05-18T19:12:42.562Z,20.20
2019-05-18T19:15:14.063Z,20.10
2019-05-18T19:17:44.275Z,20.00
2019-05-18T19:20:14.629Z,20.00
2019-05-18T19:22:44.901Z,19.90
2019-05-18T19:25:15.582Z,19.90
2019-05-18T19:27:54.440Z,19.80
2019-05-18T19:30:18.487Z,19.70
2019-05-18T19:32:48.676Z,19.60
2019-05-18T19:35:18.904Z,19.60
2019-05-18T19:37:49.192Z,19.50
2019-05-18T19:40:19.463Z,19.50
2019-05-18T19:42:49.658Z,19.40
2019-05-18T19:45:19.865Z,19.40
2019-05-18T19:47:50.091Z,19.30
2019-05-18T19:50:20.323Z,19.30
2019-05-18T19:52:50.484Z,19.20
2019-05-18T19:55:20.764Z,19.20
2019-05-18T19:57:50.828Z,19.10
2019-05-18T20:00:21.522Z,19.10
2019-05-18T20:02:51.643Z,19.00
2019-05-18T20:05:21.785Z,18.90
2019-05-18T20:07:52.010Z,18.90
2019-05-18T20:10:24.800Z,18.90
2019-05-18T20:12:54.994Z,18.80
2019-05-18T20:15:25.273Z,18.80
2019-05-18T20:17:55.542Z,18.80
2019-05-18T20:20:25.772Z,18.80
2019-05-18T20:22:56.064Z,18.70
2019-05-18T20:25:27.288Z,18.70
2019-05-18T20:27:57.457Z,18.70
2019-05-18T20:30:27.671Z,18.70
2019-05-18T20:32:57.803Z,18.70
2019-05-18T20:35:28.141Z,18.60
2019-05-18T20:37:58.441Z,18.60
2019-05-18T20:40:28.542Z,18.50
2019-05-18T20:42:58.775Z,18.50
2019-05-18T20:45:28.958Z,18.40
2019-05-18T20:47:59.247Z,18.40
2019-05-18T20:50:29.430Z,18.30
2019-05-18T20:52:59.593Z,18.30
2019-05-18T20:55:29.878Z,18.20
2019-05-18T20:57:59.944Z,18.20
2019-05-18T21:00:30.226Z,18.20
2019-05-18T21:03:00.287Z,18.10
2019-05-18T21:05:30.585Z,18.10
2019-05-18T21:08:00.744Z,18.10
2019-05-18T21:10:31.025Z,18.10
2019-05-18T21:13:01.248Z,18.00
2019-05-18T21:15:31.424Z,18.00
2019-05-18T21:18:01.695Z,17.90
2019-05-18T21:20:31.880Z,17.90
2019-05-18T21:23:02.044Z,17.90
2019-05-18T21:25:32.449Z,17.80
2019-05-18T21:28:02.683Z,17.70
2019-05-18T21:30:35.279Z,17.70
2019-05-18T21:33:05.613Z,17.70
2019-05-18T21:35:35.882Z,17.60
2019-05-18T21:38:06.056Z,17.60
2019-05-18T21:40:36.240Z,17.60
2019-05-18T21:43:06.399Z,17.50
2019-05-18T21:45:38.715Z,17.50
2019-05-18T21:48:08.975Z,17.50
2019-05-18T21:50:39.167Z,17.40
2019-05-18T21:53:09.320Z,17.40
2019-05-18T21:55:39.452Z,17.30
2019-05-18T21:58:12.270Z,17.20
2019-05-18T22:00:41.506Z,17.20
2019-05-18T22:03:11.828Z,17.10
2019-05-18T22:05:42.048Z,17.10
2019-05-18T22:08:12.296Z,17.00
2019-05-18T22:10:42.467Z,17.00
2019-05-18T22:13:12.635Z,16.90
2019-05-18T22:15:42.820Z,16.90
2019-05-18T22:18:24.099Z,16.80
2019-05-18T22:20:44.872Z,16.80
2019-05-18T22:23:15.096Z,16.70
2019-05-18T22:25:45.216Z,16.70
2019-05-18T22:28:15.527Z,16.70
2019-05-18T22:30:45.768Z,16.70
2019-05-18T22:33:16.083Z,16.60
2019-05-18T22:35:46.187Z,16.60
2019-05-18T22:38:16.379Z,16.60
2019-05-18T22:40:46.397Z,16.50
2019-05-18T22:43:16.542Z,16.50
2019-05-18T22:45:46.673Z,16.50
2019-05-18T22:48:16.905Z,16.40
2019-05-18T22:50:47.101Z,16.40
2019-05-18T22:53:17.334Z,16.40
2019-05-18T22:55:47.525Z,16.30
2019-05-18T22:58:17.719Z,16.30
2019-05-18T23:00:47.953Z,16.30
2019-05-18T23:03:18.128Z,16.20
2019-05-18T23:05:48.329Z,16.20
2019-05-18T23:08:18.443Z,16.20
2019-05-18T23:10:48.670Z,16.10
2019-05-18T23:13:18.783Z,16.10
2019-05-18T23:15:48.994Z,16.10
2019-05-18T23:18:19.184Z,16.00
2019-05-18T23:20:49.277Z,16.00
2019-05-18T23:23:19.485Z,15.90
2019-05-18T23:25:49.678Z,15.90
2019-05-18T23:28:19.790Z,15.80
2019-05-18T23:30:49.962Z,15.80
2019-05-18T23:33:20.027Z,15.80
2019-05-18T23:35:50.191Z,15.70
2019-05-18T23:38:20.379Z,15.70
2019-05-18T23:40:50.494Z,15.70
2019-05-18T23:43:20.663Z,15.60
2019-05-18T23:45:50.718Z,15.60
2019-05-18T23:48:20.857Z,15.60
2019-05-18T23:50:52.317Z,15.50
2019-05-18T23:53:22.510Z,15.50
2019-05-18T23:55:52.685Z,15.50
2019-05-18T23:58:22.734Z,15.50
